createdAt,value
2019-02-06T00:02:04.900Z,101104.66
2019-02-06T00:05:14.140Z,101106.80
2019-02-06T00:08:13.086Z,101100.80
2019-02-06T00:11:16.014Z,101104.89
2019-02-06T00:14:19.379Z,101098.19
2019-02-06T00:17:22.426Z,101099.34
2019-02-06T00:20:25.303Z,101096.98
2019-02-06T00:23:28.240Z,101094.69
2019-02-06T00:26:31.161Z,101096.36
2019-02-06T00:29:34.118Z,101090.28
2019-02-06T00:32:37.850Z,101085.88
2019-02-06T00:35:41.783Z,101082.77
2019-02-06T00:38:44.720Z,101085.47
2019-02-06T00:41:48.522Z,101079.82
2019-02-06T00:44:51.500Z,101071.98
2019-02-06T00:47:55.512Z,101059.05
2019-02-06T00:50:58.815Z,101055.30
2019-02-06T00:54:01.738Z,101047.59
2019-02-06T00:57:04.654Z,101050.12
2019-02-06T01:00:14.331Z,101046.34
2019-02-06T01:03:17.788Z,101045.78
2019-02-06T01:06:21.264Z,101049.69
2019-02-06T01:09:24.281Z,101058.15
2019-02-06T01:12:27.236Z,101054.98
2019-02-06T01:15:31.759Z,101052.86
2019-02-06T01:18:35.394Z,101054.08
2019-02-06T01:21:38.325Z,101050.53
2019-02-06T01:24:41.572Z,101044.31
2019-02-06T01:27:45.107Z,101050.77
2019-02-06T01:30:54.308Z,101036.75
2019-02-06T01:33:57.210Z,101039.41
2019-02-06T01:37:00.802Z,101038.19
2019-02-06T01:40:05.427Z,101046.08
2019-02-06T01:43:08.454Z,101045.66
2019-02-06T01:46:12.307Z,101044.69
2019-02-06T01:49:15.223Z,101044.73
2019-02-06T01:52:18.167Z,101046.84
2019-02-06T01:55:21.082Z,101039.92
2019-02-06T01:58:24.016Z,101039.12
2019-02-06T02:01:28.640Z,101040.20
2019-02-06T02:04:32.412Z,101044.97
2019-02-06T02:07:35.372Z,101040.16
2019-02-06T02:10:38.418Z,101037.50
2019-02-06T02:13:41.374Z,101027.97
2019-02-06T02:16:44.305Z,101026.23
2019-02-06T02:19:47.351Z,101017.33
2019-02-06T02:22:51.108Z,101010.58
2019-02-06T02:25:54.351Z,101010.91
2019-02-06T02:28:57.688Z,101008.09
2019-02-06T02:32:01.235Z,101000.44
2019-02-06T02:35:06.241Z,100993.02
2019-02-06T02:38:09.537Z,100986.18
2019-02-06T02:41:12.466Z,100979.67
2019-02-06T02:44:17.326Z,100972.25
2019-02-06T02:47:20.231Z,100971.28
2019-02-06T02:50:23.480Z,100965.97
2019-02-06T02:53:26.672Z,100961.66
2019-02-06T02:56:29.613Z,100966.93
2019-02-06T02:59:32.506Z,100959.97
2019-02-06T03:02:54.221Z,100949.55
2019-02-06T03:05:57.122Z,100950.39
2019-02-06T03:09:01.321Z,100946.59
2019-02-06T03:12:06.152Z,100948.70
2019-02-06T03:15:09.376Z,100930.42
2019-02-06T03:18:12.703Z,100925.14
2019-02-06T03:21:16.089Z,100917.67
2019-02-06T03:24:19.015Z,100919.41
2019-02-06T03:27:22.280Z,100920.75
2019-02-06T03:30:25.188Z,100909.94
2019-02-06T03:33:28.545Z,100910.20
2019-02-06T03:36:39.856Z,100905.09
2019-02-06T03:39:36.935Z,100905.97
2019-02-06T03:42:39.846Z,100898.47
2019-02-06T03:45:42.773Z,100890.34
2019-02-06T03:48:45.693Z,100890.34
2019-02-06T03:51:49.038Z,100884.42
2019-02-06T03:54:52.453Z,100886.42
2019-02-06T03:57:55.356Z,100886.30
2019-02-06T04:00:58.280Z,100889.45
2019-02-06T04:04:01.807Z,100878.99
2019-02-06T04:07:05.450Z,100880.68
2019-02-06T04:10:10.898Z,100878.11
2019-02-06T04:13:13.823Z,100865.03
2019-02-06T04:16:16.745Z,100863.72
2019-02-06T04:19:19.648Z,100861.48
2019-02-06T04:22:22.608Z,100867.72
2019-02-06T04:25:25.589Z,100863.45
2019-02-06T04:28:29.303Z,100861.22
2019-02-06T04:31:32.841Z,100850.87
2019-02-06T04:34:36.960Z,100858.61
2019-02-06T04:37:40.561Z,100851.75
2019-02-06T04:40:44.244Z,100845.71
2019-02-06T04:43:47.857Z,100843.59
2019-02-06T04:46:51.455Z,100842.20
2019-02-06T04:49:54.383Z,100835.35
2019-02-06T04:52:57.297Z,100831.66
2019-02-06T04:56:00.823Z,100830.47
2019-02-06T04:59:03.752Z,100824.24
2019-02-06T05:02:06.660Z,100821.34
2019-02-06T05:05:09.607Z,100822.93
2019-02-06T05:08:12.576Z,100829.52
2019-02-06T05:11:15.873Z,100819.54
2019-02-06T05:14:19.345Z,100825.55
2019-02-06T05:17:23.095Z,100829.13
2019-02-06T05:20:39.147Z,100826.08
2019-02-06T05:23:42.878Z,100825.20
2019-02-06T05:26:47.071Z,100821.59
2019-02-06T05:29:50.584Z,100823.85
2019-02-06T05:32:53.811Z,100821.09
2019-02-06T05:35:56.781Z,100816.55
2019-02-06T05:38:59.695Z,100811.81
2019-02-06T05:42:02.626Z,100807.28
2019-02-06T05:45:06.423Z,100806.44
2019-02-06T05:48:09.662Z,100800.55
2019-02-06T05:51:12.601Z,100786.70
2019-02-06T05:54:15.520Z,100788.23
2019-02-06T05:57:18.771Z,100783.00
2019-02-06T06:00:30.541Z,100784.92
2019-02-06T06:03:33.474Z,100779.41
2019-02-06T06:06:36.454Z,100787.19
2019-02-06T06:09:39.831Z,100779.44
2019-02-06T06:12:43.208Z,100768.16
2019-02-06T06:15:46.485Z,100766.98
2019-02-06T06:18:49.427Z,100763.13
2019-02-06T06:21:52.732Z,100764.41
2019-02-06T06:24:55.999Z,100760.87
2019-02-06T06:27:58.921Z,100758.87
2019-02-06T06:31:01.857Z,100749.84
2019-02-06T06:34:05.182Z,100749.71
2019-02-06T06:37:08.823Z,100743.56
2019-02-06T06:40:15.631Z,100741.44
2019-02-06T06:43:18.870Z,100734.12
2019-02-06T06:46:21.787Z,100735.53
2019-02-06T06:49:25.437Z,100743.27
2019-02-06T06:52:28.333Z,100739.52
2019-02-06T06:55:31.668Z,100742.34
2019-02-06T06:58:35.269Z,100744.91
2019-02-06T07:01:38.181Z,100739.19
2019-02-06T07:04:41.123Z,100729.30
2019-02-06T07:07:44.060Z,100731.50
2019-02-06T07:10:47.006Z,100735.05
2019-02-06T07:13:51.573Z,100725.44
2019-02-06T07:16:54.969Z,100714.81
2019-02-06T07:19:58.221Z,100725.20
2019-02-06T07:23:01.235Z,100720.11
2019-02-06T07:26:04.205Z,100720.17
2019-02-06T07:29:07.127Z,100716.09
2019-02-06T07:32:10.039Z,100712.39
2019-02-06T07:35:13.669Z,100723.16
2019-02-06T07:38:24.465Z,100726.20
2019-02-06T07:41:22.657Z,100725.80
2019-02-06T07:44:25.570Z,100730.70
2019-02-06T07:47:28.492Z,100735.09
2019-02-06T07:50:32.436Z,100736.88
2019-02-06T07:53:35.332Z,100739.36
2019-02-06T07:56:38.269Z,100748.66
2019-02-06T07:59:41.533Z,100749.98
2019-02-06T08:02:45.505Z,100747.05
2019-02-06T08:05:48.404Z,100747.62
2019-02-06T08:08:52.340Z,100752.39
2019-02-06T08:11:55.651Z,100750.43
2019-02-06T08:14:59.036Z,100749.45
2019-02-06T08:18:02.295Z,100754.28
2019-02-06T08:21:05.307Z,100747.08
2019-02-06T08:24:08.327Z,100748.65
2019-02-06T08:27:11.226Z,100739.65
2019-02-06T08:30:21.941Z,100739.29
2019-02-06T08:33:25.246Z,100734.25
2019-02-06T08:36:28.156Z,100729.03
2019-02-06T08:39:31.524Z,100724.92
2019-02-06T08:42:34.431Z,100712.91
2019-02-06T08:45:37.366Z,100714.81
2019-02-06T08:48:40.650Z,100713.80
2019-02-06T08:51:44.298Z,100717.83
2019-02-06T08:54:47.592Z,100718.97
2019-02-06T08:57:50.712Z,100729.88
2019-02-06T09:00:53.641Z,100723.99
2019-02-06T09:03:56.543Z,100728.52
2019-02-06T09:06:59.824Z,100725.97
2019-02-06T09:10:03.546Z,100732.08
2019-02-06T09:13:07.580Z,100737.83
2019-02-06T09:16:10.518Z,100738.13
2019-02-06T09:19:13.531Z,100740.44
2019-02-06T09:22:16.521Z,100739.86
2019-02-06T09:25:20.528Z,100741.55
2019-02-06T09:28:23.466Z,100744.19
2019-02-06T09:31:26.389Z,100741.60
2019-02-06T09:34:29.668Z,100740.66
2019-02-06T09:37:33.639Z,100743.39
2019-02-06T09:40:37.148Z,100747.36
2019-02-06T09:43:41.072Z,100742.28
2019-02-06T09:46:44.340Z,100746.23
2019-02-06T09:49:49.765Z,100754.86
2019-02-06T09:52:53.509Z,100754.69
2019-02-06T09:55:56.525Z,100757.27
2019-02-06T09:59:00.249Z,100759.47
2019-02-06T10:02:03.207Z,100760.47
2019-02-06T10:05:07.683Z,100759.92
2019-02-06T10:08:11.242Z,100760.85
2019-02-06T10:11:14.582Z,100757.02
2019-02-06T10:14:18.099Z,100755.34
2019-02-06T10:17:21.372Z,100754.30
2019-02-06T10:20:31.066Z,100748.59
2019-02-06T10:23:34.000Z,100752.48
2019-02-06T10:26:37.219Z,100761.88
2019-02-06T10:29:40.303Z,100759.61
2019-02-06T10:32:44.717Z,100754.22
2019-02-06T10:35:48.248Z,100752.98
2019-02-06T10:38:52.682Z,100754.72
2019-02-06T10:41:55.629Z,100744.67
2019-02-06T10:44:58.543Z,100747.30
2019-02-06T10:48:01.580Z,100739.80
2019-02-06T10:51:04.734Z,100748.15
2019-02-06T10:54:07.667Z,100741.97
2019-02-06T10:57:11.304Z,100735.91
2019-02-06T11:00:20.891Z,100738.56
2019-02-06T11:03:25.487Z,100735.02
2019-02-06T11:06:28.797Z,100722.77
2019-02-06T11:09:32.066Z,100726.69
2019-02-06T11:12:36.203Z,100718.83
2019-02-06T11:15:39.550Z,100715.63
2019-02-06T11:18:44.528Z,100715.75
2019-02-06T11:21:47.747Z,100713.58
2019-02-06T11:24:50.658Z,100719.23
2019-02-06T11:27:53.560Z,100700.86
2019-02-06T11:30:57.257Z,100703.45
2019-02-06T11:34:00.785Z,100703.05
2019-02-06T11:37:05.575Z,100696.86
2019-02-06T11:40:15.258Z,100695.58
2019-02-06T11:43:18.174Z,100698.19
2019-02-06T11:46:21.097Z,100689.80
2019-02-06T11:49:30.002Z,100704.38
2019-02-06T11:52:32.928Z,100698.22
2019-02-06T11:55:36.395Z,100689.46
2019-02-06T11:58:39.707Z,100681.96
2019-02-06T12:01:47.823Z,100680.61
2019-02-06T12:04:50.732Z,100677.20
2019-02-06T12:07:54.190Z,100674.10
2019-02-06T12:10:57.113Z,100681.55
2019-02-06T12:14:00.555Z,100669.70
2019-02-06T12:17:03.785Z,100674.99
2019-02-06T12:20:12.388Z,100671.92
2019-02-06T12:23:15.783Z,100666.63
2019-02-06T12:26:19.629Z,100662.26
2019-02-06T12:29:22.822Z,100664.02
2019-02-06T12:32:26.520Z,100657.42
2019-02-06T12:35:30.156Z,100649.55
2019-02-06T12:38:34.461Z,100642.52
2019-02-06T12:41:37.852Z,100632.00
2019-02-06T12:44:41.232Z,100618.84
2019-02-06T12:47:44.299Z,100615.31
2019-02-06T12:50:47.628Z,100616.20
2019-02-06T12:53:50.657Z,100609.63
2019-02-06T12:56:53.937Z,100609.63
2019-02-06T12:59:57.170Z,100617.06
2019-02-06T13:03:00.542Z,100610.94
2019-02-06T13:06:04.300Z,100607.41
2019-02-06T13:09:10.440Z,100613.57
2019-02-06T13:12:13.647Z,100616.66
2019-02-06T13:15:16.650Z,100610.49
2019-02-06T13:18:19.863Z,100608.73
2019-02-06T13:21:23.069Z,100602.59
2019-02-06T13:24:26.011Z,100594.70
2019-02-06T13:27:28.928Z,100593.84
2019-02-06T13:30:35.171Z,100592.94
2019-02-06T13:33:38.808Z,100591.62
2019-02-06T13:36:41.741Z,100590.31
2019-02-06T13:39:44.640Z,100578.02
2019-02-06T13:42:47.573Z,100569.63
2019-02-06T13:45:50.918Z,100573.17
2019-02-06T13:48:53.924Z,100570.11
2019-02-06T13:51:56.859Z,100565.25
2019-02-06T13:54:59.763Z,100554.25
2019-02-06T13:58:03.090Z,100549.48
2019-02-06T14:01:06.415Z,100546.38
2019-02-06T14:04:09.731Z,100543.72
2019-02-06T14:07:12.759Z,100540.70
2019-02-06T14:10:17.664Z,100535.35
2019-02-06T14:13:20.799Z,100529.59
2019-02-06T14:16:27.043Z,100525.73
2019-02-06T14:19:29.244Z,100528.45
2019-02-06T14:22:32.172Z,100523.95
2019-02-06T14:25:46.717Z,100528.82
2019-02-06T14:29:48.495Z,100520.54
2019-02-06T14:33:54.564Z,100519.15
2019-02-06T14:37:39.304Z,100508.13
2019-02-06T14:41:49.541Z,100506.36
2019-02-06T14:45:48.642Z,100494.96
2019-02-06T14:49:31.843Z,100498.86
2019-02-06T14:53:44.418Z,100484.83
2019-02-06T14:57:47.412Z,100480.03
2019-02-06T15:01:45.808Z,100477.46
2019-02-06T15:05:49.540Z,100469.90
2019-02-06T15:09:49.598Z,100454.53
2019-02-06T15:13:46.281Z,100461.69
2019-02-06T15:18:00.854Z,100458.80
2019-02-06T15:21:58.134Z,100461.13
2019-02-06T15:25:40.237Z,100466.85
2019-02-06T15:29:18.967Z,100461.23
2019-02-06T15:32:37.956Z,100455.41
2019-02-06T15:36:51.656Z,100452.95
2019-02-06T15:40:42.932Z,100443.09
2019-02-06T15:44:28.700Z,100449.39
2019-02-06T15:48:07.102Z,100434.42
2019-02-06T15:51:44.543Z,100428.16
2019-02-06T15:56:03.608Z,100425.64
2019-02-06T16:00:05.143Z,100421.40
2019-02-06T16:04:47.853Z,100421.22
2019-02-06T16:08:12.958Z,100412.03
2019-02-06T16:11:47.094Z,100402.46
2019-02-06T16:15:51.847Z,100387.89
2019-02-06T16:20:13.104Z,100380.05
2019-02-06T16:23:54.534Z,100388.45
2019-02-06T16:27:58.036Z,100385.91
2019-02-06T16:31:51.520Z,100385.89
2019-02-06T16:36:26.015Z,100394.23
2019-02-06T16:40:27.995Z,100381.05
2019-02-06T16:44:34.592Z,100372.77
2019-02-06T16:48:17.438Z,100368.34
2019-02-06T16:52:00.389Z,100360.53
2019-02-06T16:56:15.436Z,100358.45
2019-02-06T17:00:10.221Z,100361.71
2019-02-06T17:04:18.847Z,100361.27
2019-02-06T17:08:09.051Z,100354.66
2019-02-06T17:12:22.341Z,100359.95
2019-02-06T17:16:27.416Z,100351.18
2019-02-06T17:20:21.102Z,100363.95
2019-02-06T17:23:41.089Z,100369.19
2019-02-06T17:27:35.172Z,100374.02
2019-02-06T17:31:45.436Z,100376.68
2019-02-06T17:35:35.235Z,100369.58
2019-02-06T17:39:44.876Z,100360.42
2019-02-06T17:43:29.954Z,100361.68
2019-02-06T17:47:05.808Z,100358.20
2019-02-06T17:51:07.975Z,100345.86
2019-02-06T17:55:11.266Z,100347.67
2019-02-06T17:58:15.215Z,100337.64
2019-02-06T18:01:40.733Z,100328.86
2019-02-06T18:04:46.416Z,100328.42
2019-02-06T18:07:49.347Z,100320.06
2019-02-06T18:10:52.288Z,100332.37
2019-02-06T18:13:55.620Z,100313.95
2019-02-06T18:17:04.609Z,100317.42
2019-02-06T18:20:11.925Z,100323.59
2019-02-06T18:23:14.979Z,100317.42
2019-02-06T18:26:17.947Z,100331.47
2019-02-06T18:29:21.425Z,100320.56
2019-02-06T18:32:24.371Z,100320.12
2019-02-06T18:35:27.476Z,100316.14
2019-02-06T18:38:32.279Z,100311.78
2019-02-06T18:41:35.677Z,100313.56
2019-02-06T18:44:38.602Z,100315.78
2019-02-06T18:47:41.849Z,100310.52
2019-02-06T18:50:44.817Z,100308.74
2019-02-06T18:53:48.141Z,100312.63
2019-02-06T18:56:51.094Z,100310.97
2019-02-06T18:59:54.701Z,100297.80
2019-02-06T19:02:58.033Z,100299.06
2019-02-06T19:06:02.176Z,100295.99
2019-02-06T19:09:11.609Z,100303.09
2019-02-06T19:12:15.053Z,100283.30
2019-02-06T19:15:18.459Z,100292.08
2019-02-06T19:18:22.933Z,100290.76
2019-02-06T19:21:25.972Z,100284.62
2019-02-06T19:24:28.902Z,100279.80
2019-02-06T19:27:32.196Z,100268.83
2019-02-06T19:30:37.357Z,100261.75
2019-02-06T19:33:40.379Z,100253.07
2019-02-06T19:36:43.439Z,100250.87
2019-02-06T19:39:46.481Z,100243.86
2019-02-06T19:43:00.197Z,100248.25
2019-02-06T19:45:54.798Z,100250.47
2019-02-06T19:48:57.710Z,100262.72
2019-02-06T19:52:01.377Z,100246.93
2019-02-06T19:55:06.941Z,100241.67
2019-02-06T19:58:09.912Z,100238.09
2019-02-06T20:01:12.977Z,100239.45
2019-02-06T20:04:16.459Z,100249.16
2019-02-06T20:07:19.454Z,100232.46
2019-02-06T20:10:38.953Z,100245.62
2019-02-06T20:13:42.006Z,100237.72
2019-02-06T20:16:46.023Z,100238.59
2019-02-06T20:19:49.326Z,100238.59
2019-02-06T20:22:52.581Z,100225.84
2019-02-06T20:25:55.657Z,100212.73
2019-02-06T20:28:58.584Z,100220.63
2019-02-06T20:32:01.523Z,100208.78
2019-02-06T20:35:07.063Z,100211.84
2019-02-06T20:38:10.822Z,100203.95
2019-02-06T20:41:14.220Z,100193.91
2019-02-06T20:44:17.659Z,100190.80
2019-02-06T20:47:20.609Z,100198.66
2019-02-06T20:50:26.292Z,100197.34
2019-02-06T20:53:29.248Z,100198.73
2019-02-06T20:56:32.173Z,100189.99
2019-02-06T20:59:35.471Z,100183.81
2019-02-06T21:02:38.421Z,100184.30
2019-02-06T21:05:41.353Z,100187.40
2019-02-06T21:08:44.292Z,100173.80
2019-02-06T21:11:47.244Z,100172.45
2019-02-06T21:14:50.955Z,100181.26
2019-02-06T21:17:53.872Z,100171.20
2019-02-06T21:20:56.824Z,100168.38
2019-02-06T21:23:59.767Z,100163.21
2019-02-06T21:27:03.523Z,100157.14
2019-02-06T21:30:14.711Z,100165.91
2019-02-06T21:33:17.731Z,100153.23
2019-02-06T21:36:20.981Z,100148.41
2019-02-06T21:39:24.278Z,100148.41
2019-02-06T21:42:27.185Z,100143.55
2019-02-06T21:45:31.112Z,100138.33
2019-02-06T21:48:34.189Z,100149.73
2019-02-06T21:51:38.587Z,100136.58
2019-02-06T21:54:42.315Z,100138.77
2019-02-06T21:57:45.355Z,100145.78
2019-02-06T22:00:48.284Z,100139.65
2019-02-06T22:03:51.606Z,100136.10
2019-02-06T22:06:54.867Z,100136.14
2019-02-06T22:09:58.464Z,100131.28
2019-02-06T22:13:02.048Z,100126.06
2019-02-06T22:16:04.956Z,100122.55
2019-02-06T22:19:08.743Z,100115.90
2019-02-06T22:22:12.335Z,100113.78
2019-02-06T22:25:15.771Z,100108.13
2019-02-06T22:28:18.754Z,100108.52
2019-02-06T22:31:22.091Z,100108.13
2019-02-06T22:34:25.049Z,100105.06
2019-02-06T22:37:28.637Z,100092.86
2019-02-06T22:40:32.277Z,100094.14
2019-02-06T22:43:35.551Z,100094.17
2019-02-06T22:46:38.555Z,100086.69
2019-02-06T22:49:41.691Z,100093.66
2019-02-06T22:52:44.797Z,100091.06
2019-02-06T22:55:48.359Z,100087.56
2019-02-06T22:58:51.262Z,100089.23
2019-02-06T23:01:57.264Z,100080.55
2019-02-06T23:05:00.298Z,100071.70
2019-02-06T23:08:03.871Z,100062.09
2019-02-06T23:11:07.306Z,100065.61
2019-02-06T23:14:17.571Z,100069.63
2019-02-06T23:17:15.925Z,100060.83
2019-02-06T23:20:19.183Z,100052.06
2019-02-06T23:23:22.112Z,100052.09
2019-02-06T23:26:25.552Z,100034.57
2019-02-06T23:29:29.563Z,100035.36
2019-02-06T23:32:32.484Z,100034.56
2019-02-06T23:35:35.799Z,100021.86
2019-02-06T23:38:38.732Z,100029.71
2019-02-06T23:41:42.046Z,100020.11
2019-02-06T23:44:45.060Z,100014.41
2019-02-06T23:47:48.011Z,100008.28
2019-02-06T23:50:51.381Z,99999.98
2019-02-06T23:53:54.660Z,99999.55
2019-02-06T23:56:57.611Z,99996.05
